createdAt,value
2019-03-31T00:01:36.118Z,8.52
2019-03-31T00:04:06.102Z,8.52
2019-03-31T00:06:35.953Z,8.51
2019-03-31T00:09:07.816Z,8.51
2019-03-31T00:11:37.667Z,8.15
2019-03-31T00:14:07.574Z,8.42
2019-03-31T00:16:37.530Z,8.41
2019-03-31T00:19:07.673Z,8.25
2019-03-31T00:21:37.486Z,7.98
2019-03-31T00:24:07.326Z,7.90
2019-03-31T00:26:37.150Z,7.80
2019-03-31T00:29:07.106Z,7.97
2019-03-31T00:31:37.018Z,7.85
2019-03-31T00:34:07.559Z,7.94
2019-03-31T00:36:37.384Z,8.15
2019-03-31T00:39:08.740Z,8.04
2019-03-31T00:41:38.557Z,7.98
2019-03-31T00:44:08.385Z,8.04
2019-03-31T00:46:38.248Z,7.86
2019-03-31T00:49:08.057Z,7.79
2019-03-31T00:51:54.738Z,7.90
2019-03-31T00:54:27.629Z,7.75
2019-03-31T00:56:56.136Z,7.75
2019-03-31T00:59:25.972Z,7.59
2019-03-31T01:01:58.884Z,7.60
2019-03-31T01:04:30.816Z,7.55
2019-03-31T01:07:00.882Z,7.59
2019-03-31T01:09:33.543Z,7.28
2019-03-31T01:12:04.740Z,7.59
2019-03-31T01:14:34.683Z,7.14
2019-03-31T01:17:06.783Z,7.08
2019-03-31T01:19:38.195Z,7.10
2019-03-31T01:22:08.124Z,6.93
2019-03-31T01:24:38.055Z,7.06
2019-03-31T01:27:09.651Z,7.08
2019-03-31T01:29:39.606Z,6.77
2019-03-31T01:32:09.444Z,6.93
2019-03-31T01:34:39.282Z,7.14
2019-03-31T01:37:10.335Z,7.03
2019-03-31T01:39:40.300Z,7.07
2019-03-31T01:42:10.346Z,6.98
2019-03-31T01:44:40.172Z,6.91
2019-03-31T01:47:10.325Z,6.80
2019-03-31T01:49:40.163Z,7.05
2019-03-31T01:52:10.041Z,6.98
2019-03-31T01:54:39.890Z,6.73
2019-03-31T01:57:11.647Z,6.94
2019-03-31T01:59:41.474Z,6.97
2019-03-31T02:02:15.805Z,6.83
2019-03-31T02:04:45.755Z,6.60
2019-03-31T02:07:15.699Z,6.84
2019-03-31T02:09:45.642Z,6.76
2019-03-31T02:12:15.673Z,6.77
2019-03-31T02:14:46.848Z,6.80
2019-03-31T02:17:17.219Z,6.77
2019-03-31T02:19:47.119Z,6.73
2019-03-31T02:22:17.101Z,6.68
2019-03-31T02:24:46.901Z,6.64
2019-03-31T02:27:16.759Z,6.58
2019-03-31T02:29:46.643Z,6.88
2019-03-31T02:32:24.018Z,6.58
2019-03-31T02:34:48.174Z,6.82
2019-03-31T02:37:18.026Z,6.60
2019-03-31T02:39:47.890Z,6.38
2019-03-31T02:42:17.753Z,6.37
2019-03-31T02:44:48.750Z,6.59
2019-03-31T02:47:18.653Z,6.50
2019-03-31T02:49:48.604Z,6.52
2019-03-31T02:52:18.488Z,6.53
2019-03-31T02:54:51.491Z,6.68
2019-03-31T02:57:23.494Z,6.53
2019-03-31T02:59:53.932Z,6.20
2019-03-31T03:02:40.698Z,6.10
2019-03-31T03:04:57.738Z,6.10
2019-03-31T03:07:29.493Z,5.99
2019-03-31T03:10:01.171Z,5.93
2019-03-31T03:12:34.987Z,6.00
2019-03-31T03:15:05.430Z,6.12
2019-03-31T03:17:35.256Z,5.99
2019-03-31T03:20:06.174Z,6.03
2019-03-31T03:22:36.044Z,6.16
2019-03-31T03:25:06.423Z,6.18
2019-03-31T03:27:36.367Z,6.27
2019-03-31T03:30:06.782Z,6.24
2019-03-31T03:32:37.802Z,6.11
2019-03-31T03:35:08.944Z,6.05
2019-03-31T03:37:38.779Z,6.01
2019-03-31T03:40:08.706Z,6.16
2019-03-31T03:42:38.558Z,6.11
2019-03-31T03:45:09.412Z,6.09
2019-03-31T03:47:39.247Z,6.06
2019-03-31T03:50:09.233Z,5.90
2019-03-31T03:52:39.145Z,6.03
2019-03-31T03:55:09.014Z,5.75
2019-03-31T03:57:38.846Z,6.02
2019-03-31T04:00:08.784Z,6.10
2019-03-31T04:02:38.749Z,6.05
2019-03-31T04:05:08.600Z,6.27
2019-03-31T04:07:38.540Z,6.23
2019-03-31T04:10:30.504Z,6.29
2019-03-31T04:13:00.388Z,6.35
2019-03-31T04:15:30.388Z,6.23
2019-03-31T04:18:00.322Z,6.29
2019-03-31T04:20:30.354Z,6.35
2019-03-31T04:23:00.144Z,6.36
2019-03-31T04:25:30.098Z,6.39
2019-03-31T04:28:00.113Z,6.17
2019-03-31T04:30:29.964Z,6.21
2019-03-31T04:32:59.812Z,5.97
2019-03-31T04:35:29.746Z,5.97
2019-03-31T04:37:59.623Z,5.79
2019-03-31T04:40:29.447Z,5.84
2019-03-31T04:42:59.274Z,5.77
2019-03-31T04:45:29.076Z,5.69
2019-03-31T04:47:58.915Z,5.83
2019-03-31T04:50:28.877Z,5.63
2019-03-31T04:52:58.687Z,5.74
2019-03-31T04:55:28.525Z,5.45
2019-03-31T04:58:01.103Z,5.42
2019-03-31T05:00:31.138Z,5.32
2019-03-31T05:03:00.979Z,5.20
2019-03-31T05:05:30.842Z,5.08
2019-03-31T05:08:00.679Z,5.28
2019-03-31T05:10:30.518Z,5.33
2019-03-31T05:13:00.386Z,5.38
2019-03-31T05:15:30.233Z,5.25
2019-03-31T05:18:00.082Z,5.32
2019-03-31T05:20:29.968Z,5.50
2019-03-31T05:22:59.782Z,5.58
2019-03-31T05:25:29.622Z,5.17
2019-03-31T05:28:00.038Z,5.42
2019-03-31T05:30:29.958Z,5.39
2019-03-31T05:32:59.776Z,5.50
2019-03-31T05:35:29.615Z,5.31
2019-03-31T05:37:59.541Z,5.33
2019-03-31T05:40:30.797Z,5.24
2019-03-31T05:43:00.840Z,5.22
2019-03-31T05:45:30.783Z,5.25
2019-03-31T05:48:00.640Z,5.16
2019-03-31T05:50:30.511Z,5.37
2019-03-31T05:53:00.358Z,5.35
2019-03-31T05:55:30.183Z,5.44
2019-03-31T05:58:01.514Z,5.49
2019-03-31T06:00:34.845Z,5.46
2019-03-31T06:03:04.964Z,5.47
2019-03-31T06:05:34.776Z,5.35
2019-03-31T06:08:05.105Z,5.49
2019-03-31T06:10:34.983Z,5.57
2019-03-31T06:13:04.829Z,5.59
2019-03-31T06:15:34.699Z,5.68
2019-03-31T06:18:04.816Z,5.79
2019-03-31T06:20:34.785Z,5.74
2019-03-31T06:23:06.053Z,6.01
2019-03-31T06:25:37.026Z,5.93
2019-03-31T06:28:07.024Z,6.29
2019-03-31T06:30:37.880Z,6.48
2019-03-31T06:33:07.864Z,6.58
2019-03-31T06:35:39.387Z,6.21
2019-03-31T06:38:11.041Z,6.52
2019-03-31T06:40:42.388Z,6.64
2019-03-31T06:43:12.266Z,6.64
2019-03-31T06:45:42.113Z,7.06
2019-03-31T06:48:11.997Z,7.18
2019-03-31T06:50:42.356Z,7.31
2019-03-31T06:53:12.236Z,7.47
2019-03-31T06:55:42.080Z,7.93
2019-03-31T06:58:11.920Z,8.44
2019-03-31T07:00:41.959Z,9.27
2019-03-31T07:03:11.824Z,10.42
2019-03-31T07:05:41.965Z,10.06
2019-03-31T07:08:11.902Z,10.18
2019-03-31T07:10:42.187Z,12.30
2019-03-31T07:13:12.431Z,13.86
2019-03-31T07:15:43.937Z,13.83
2019-03-31T07:18:16.058Z,13.99
2019-03-31T07:20:46.501Z,15.91
2019-03-31T07:23:16.470Z,17.77
2019-03-31T07:25:46.433Z,18.36
2019-03-31T07:28:16.390Z,17.46
2019-03-31T07:30:49.041Z,17.49
2019-03-31T07:33:19.112Z,17.86
2019-03-31T07:35:49.112Z,15.81
2019-03-31T07:38:21.612Z,14.89
2019-03-31T07:40:51.868Z,15.60
2019-03-31T07:43:21.796Z,15.32
2019-03-31T07:45:51.680Z,15.43
2019-03-31T07:48:21.544Z,16.88
2019-03-31T07:50:52.872Z,20.47
2019-03-31T07:53:23.398Z,20.41
2019-03-31T07:55:53.249Z,18.42
2019-03-31T07:58:23.189Z,19.75
2019-03-31T08:00:53.032Z,21.36
2019-03-31T08:03:23.045Z,22.12
2019-03-31T08:05:52.891Z,23.97
2019-03-31T08:08:22.754Z,22.28
2019-03-31T08:10:54.540Z,22.86
2019-03-31T08:13:24.383Z,22.04
2019-03-31T08:15:54.351Z,22.72
2019-03-31T08:18:24.442Z,22.71
2019-03-31T08:20:54.317Z,23.64
2019-03-31T08:23:35.610Z,24.33
2019-03-31T08:26:06.076Z,24.05
2019-03-31T08:28:35.944Z,24.15
2019-03-31T08:31:05.893Z,23.16
2019-03-31T08:33:35.807Z,23.42
2019-03-31T08:36:05.793Z,23.73
2019-03-31T08:38:35.662Z,21.53
2019-03-31T08:41:05.729Z,22.89
2019-03-31T08:43:35.641Z,22.33
2019-03-31T08:46:05.483Z,23.91
2019-03-31T08:48:35.408Z,23.82
2019-03-31T08:51:05.310Z,24.11
2019-03-31T08:53:35.258Z,22.85
2019-03-31T08:56:08.482Z,24.76
2019-03-31T08:58:38.511Z,24.84
2019-03-31T09:01:13.219Z,24.59
2019-03-31T09:03:43.144Z,24.60
2019-03-31T09:06:13.123Z,23.96
2019-03-31T09:08:43.019Z,26.59
2019-03-31T09:11:13.032Z,27.65
2019-03-31T09:13:42.971Z,27.48
2019-03-31T09:16:12.845Z,25.71
2019-03-31T09:18:42.739Z,25.13
2019-03-31T09:21:12.614Z,23.77
2019-03-31T09:23:42.468Z,26.45
2019-03-31T09:26:12.340Z,27.27
2019-03-31T09:28:42.622Z,26.75
2019-03-31T09:31:13.035Z,25.81
2019-03-31T09:33:43.216Z,25.29
2019-03-31T09:36:16.452Z,24.63
2019-03-31T09:38:44.722Z,26.97
2019-03-31T09:41:14.582Z,26.80
2019-03-31T09:43:44.467Z,27.71
2019-03-31T09:46:18.009Z,27.26
2019-03-31T09:48:47.992Z,26.04
2019-03-31T09:51:17.860Z,26.92
2019-03-31T09:53:47.808Z,27.62
2019-03-31T09:56:17.661Z,26.76
2019-03-31T09:58:47.501Z,27.94
2019-03-31T10:01:17.362Z,26.13
2019-03-31T10:03:47.245Z,26.49
2019-03-31T10:06:29.513Z,27.86
2019-03-31T10:08:48.742Z,28.38
2019-03-31T10:11:18.606Z,23.47
2019-03-31T10:13:48.455Z,25.30
2019-03-31T10:16:18.273Z,23.72
2019-03-31T10:18:48.181Z,22.44
2019-03-31T10:21:18.136Z,23.41
2019-03-31T10:23:48.082Z,24.01
2019-03-31T10:26:31.109Z,24.44
2019-03-31T10:28:49.683Z,25.64
2019-03-31T10:31:19.511Z,26.98
2019-03-31T10:33:49.388Z,27.23
2019-03-31T10:36:19.311Z,27.61
2019-03-31T10:38:49.153Z,26.15
2019-03-31T10:41:19.027Z,26.75
2019-03-31T10:43:48.975Z,25.56
2019-03-31T10:46:18.804Z,24.47
2019-03-31T10:48:48.832Z,23.88
2019-03-31T10:51:18.739Z,24.78
2019-03-31T10:53:48.735Z,24.77
2019-03-31T10:56:18.765Z,24.20
2019-03-31T10:58:48.918Z,26.56
2019-03-31T11:01:18.758Z,25.28
2019-03-31T11:03:50.292Z,25.72
2019-03-31T11:06:20.155Z,24.93
2019-03-31T11:08:56.438Z,24.35
2019-03-31T11:11:26.286Z,24.43
2019-03-31T11:13:56.133Z,24.29
2019-03-31T11:16:26.403Z,23.55
2019-03-31T11:18:56.247Z,23.62
2019-03-31T11:21:31.320Z,23.89
2019-03-31T11:24:01.339Z,23.86
2019-03-31T11:26:31.217Z,23.96
2019-03-31T11:29:01.235Z,23.51
2019-03-31T11:31:31.093Z,23.74
2019-03-31T11:34:01.368Z,24.66
2019-03-31T11:36:31.211Z,24.23
2019-03-31T11:39:01.093Z,24.42
2019-03-31T11:41:30.941Z,25.42
2019-03-31T11:44:01.038Z,24.37
2019-03-31T11:46:30.971Z,24.91
2019-03-31T11:49:00.823Z,24.15
2019-03-31T11:51:30.695Z,25.11
2019-03-31T11:54:00.579Z,24.31
2019-03-31T11:56:30.470Z,23.95
2019-03-31T11:59:00.348Z,25.43
2019-03-31T12:01:30.299Z,26.00
2019-03-31T12:04:00.276Z,26.48
2019-03-31T12:06:30.127Z,25.56
2019-03-31T12:09:01.556Z,24.72
2019-03-31T12:11:31.500Z,25.15
2019-03-31T12:14:01.362Z,24.99
2019-03-31T12:16:31.940Z,24.67
2019-03-31T12:19:02.875Z,25.79
2019-03-31T12:21:34.843Z,26.19
2019-03-31T12:24:05.031Z,26.60
2019-03-31T12:26:36.482Z,26.31
2019-03-31T12:29:07.422Z,27.61
2019-03-31T12:31:40.101Z,27.75
2019-03-31T12:34:11.427Z,27.65
2019-03-31T12:36:41.990Z,28.54
2019-03-31T12:39:12.931Z,28.35
2019-03-31T12:41:43.682Z,28.37
2019-03-31T12:44:13.656Z,27.85
2019-03-31T12:46:43.541Z,26.73
2019-03-31T12:49:13.473Z,26.52
2019-03-31T12:51:43.322Z,25.02
2019-03-31T12:54:13.200Z,24.11
2019-03-31T12:56:43.108Z,24.52
2019-03-31T12:59:12.960Z,22.66
2019-03-31T13:01:42.844Z,22.21
2019-03-31T13:04:12.775Z,21.63
2019-03-31T13:06:42.618Z,21.70
2019-03-31T13:09:12.489Z,21.93
2019-03-31T13:11:42.706Z,22.05
2019-03-31T13:14:12.537Z,22.11
2019-03-31T13:16:42.435Z,22.28
2019-03-31T13:19:13.877Z,22.02
2019-03-31T13:21:45.360Z,21.71
2019-03-31T13:24:15.248Z,21.67
2019-03-31T13:26:46.217Z,21.43
2019-03-31T13:29:16.398Z,21.45
2019-03-31T13:31:47.501Z,21.82
2019-03-31T13:34:17.480Z,21.73
2019-03-31T13:36:48.413Z,21.45
2019-03-31T13:39:18.308Z,21.38
2019-03-31T13:41:48.147Z,21.20
2019-03-31T13:44:17.984Z,21.32
2019-03-31T13:46:47.835Z,21.21
2019-03-31T13:49:17.699Z,21.50
2019-03-31T13:51:47.932Z,21.17
2019-03-31T13:54:17.762Z,20.93
2019-03-31T13:56:49.328Z,20.98
2019-03-31T13:59:19.964Z,20.81
2019-03-31T14:01:49.827Z,20.32
2019-03-31T14:04:19.747Z,19.90
2019-03-31T14:06:49.589Z,19.64
2019-03-31T14:09:19.444Z,19.43
2019-03-31T14:11:50.492Z,19.32
2019-03-31T14:14:22.254Z,18.95
2019-03-31T14:16:52.079Z,18.85
2019-03-31T14:19:23.736Z,18.86
2019-03-31T14:21:53.621Z,18.62
2019-03-31T14:24:26.779Z,18.70
2019-03-31T14:26:55.115Z,18.97
2019-03-31T14:29:24.999Z,18.97
2019-03-31T14:31:54.915Z,19.18
2019-03-31T14:34:24.920Z,18.97
2019-03-31T14:36:58.483Z,19.02
2019-03-31T14:39:28.291Z,19.13
2019-03-31T14:41:58.294Z,19.33
2019-03-31T14:44:28.259Z,19.62
2019-03-31T14:46:58.120Z,19.78
2019-03-31T14:49:28.008Z,19.28
2019-03-31T14:52:01.103Z,19.14
2019-03-31T14:54:29.716Z,19.10
2019-03-31T14:56:59.661Z,18.96
2019-03-31T14:59:29.522Z,19.23
2019-03-31T15:01:59.387Z,19.21
2019-03-31T15:04:29.404Z,19.05
2019-03-31T15:06:59.290Z,19.15
2019-03-31T15:09:29.657Z,19.05
2019-03-31T15:11:59.807Z,19.05
2019-03-31T15:14:29.721Z,19.20
2019-03-31T15:16:59.571Z,18.93
2019-03-31T15:19:29.438Z,18.72
2019-03-31T15:21:59.311Z,18.43
2019-03-31T15:24:29.262Z,18.50
2019-03-31T15:27:01.333Z,18.36
2019-03-31T15:29:31.147Z,18.63
2019-03-31T15:32:02.460Z,18.61
2019-03-31T15:34:32.312Z,18.75
2019-03-31T15:37:02.179Z,18.77
2019-03-31T15:39:32.059Z,18.46
2019-03-31T15:42:01.886Z,18.48
2019-03-31T15:44:31.851Z,18.46
2019-03-31T15:47:01.795Z,18.41
2019-03-31T15:49:31.622Z,18.52
2019-03-31T15:52:01.471Z,18.31
2019-03-31T15:54:31.286Z,18.31
2019-03-31T15:57:01.252Z,18.36
2019-03-31T15:59:31.089Z,18.38
2019-03-31T16:02:01.076Z,18.27
2019-03-31T16:04:33.204Z,18.27
2019-03-31T16:07:03.038Z,18.14
2019-03-31T16:09:32.368Z,18.27
2019-03-31T16:12:01.687Z,18.37
2019-03-31T16:14:30.976Z,18.19
2019-03-31T16:17:00.317Z,18.08
2019-03-31T16:19:29.650Z,17.97
2019-03-31T16:21:59.105Z,17.78
2019-03-31T16:24:36.984Z,17.75
2019-03-31T16:27:06.323Z,17.68
2019-03-31T16:29:35.825Z,17.83
2019-03-31T16:32:05.747Z,17.79
2019-03-31T16:34:35.481Z,17.73
2019-03-31T16:37:04.825Z,17.73
2019-03-31T16:39:38.139Z,17.72
2019-03-31T16:42:08.125Z,17.57
2019-03-31T16:44:37.874Z,17.56
2019-03-31T16:47:07.562Z,17.40
2019-03-31T16:49:37.245Z,17.49
2019-03-31T16:52:06.834Z,17.45
2019-03-31T16:54:37.908Z,17.34
2019-03-31T16:57:07.409Z,17.33
2019-03-31T16:59:38.671Z,17.30
2019-03-31T17:02:08.552Z,17.05
2019-03-31T17:04:38.306Z,16.79
2019-03-31T17:07:08.028Z,16.64
2019-03-31T17:09:50.686Z,16.53
2019-03-31T17:12:08.977Z,16.51
2019-03-31T17:14:38.676Z,16.54
2019-03-31T17:17:08.099Z,16.61
2019-03-31T17:19:39.011Z,16.49
2019-03-31T17:22:08.363Z,16.43
2019-03-31T17:24:38.236Z,16.34
2019-03-31T17:27:07.559Z,16.23
2019-03-31T17:29:38.798Z,16.07
2019-03-31T17:32:09.328Z,15.93
2019-03-31T17:34:38.745Z,15.72
2019-03-31T17:37:10.161Z,15.90
2019-03-31T17:39:39.794Z,15.80
2019-03-31T17:42:10.450Z,15.56
2019-03-31T17:44:39.990Z,15.59
2019-03-31T17:47:09.533Z,15.45
2019-03-31T17:49:39.212Z,15.53
2019-03-31T17:52:09.084Z,15.36
2019-03-31T17:54:38.999Z,15.31
2019-03-31T17:57:08.518Z,15.21
2019-03-31T17:59:38.244Z,15.06
2019-03-31T18:02:07.819Z,14.95
2019-03-31T18:04:38.781Z,14.83
2019-03-31T18:07:08.134Z,14.73
2019-03-31T18:09:38.081Z,14.62
2019-03-31T18:12:07.439Z,14.53
2019-03-31T18:14:36.894Z,14.40
2019-03-31T18:17:06.264Z,14.35
2019-03-31T18:19:36.187Z,14.31
2019-03-31T18:22:16.290Z,14.27
2019-03-31T18:24:37.198Z,14.16
2019-03-31T18:27:06.826Z,13.99
2019-03-31T18:29:36.539Z,13.77
2019-03-31T18:32:05.975Z,13.87
2019-03-31T18:34:35.584Z,13.86
2019-03-31T18:37:05.688Z,13.78
2019-03-31T18:39:35.045Z,13.44
2019-03-31T18:42:04.675Z,13.46
2019-03-31T18:44:35.170Z,13.30
2019-03-31T18:47:05.146Z,13.17
2019-03-31T18:49:34.647Z,13.14
2019-03-31T18:52:04.269Z,13.21
2019-03-31T18:54:53.176Z,13.08
2019-03-31T18:57:53.468Z,12.97
2019-03-31T19:00:40.502Z,12.81
2019-03-31T19:03:20.024Z,12.88
2019-03-31T19:06:03.678Z,12.94
2019-03-31T19:08:40.110Z,12.89
2019-03-31T19:11:32.725Z,12.62
2019-03-31T19:14:33.458Z,12.40
2019-03-31T19:17:20.493Z,12.46
2019-03-31T19:20:18.413Z,12.44
2019-03-31T19:23:05.878Z,12.22
2019-03-31T19:25:52.846Z,12.27
2019-03-31T19:28:44.354Z,12.33
2019-03-31T19:31:35.734Z,12.20
2019-03-31T19:34:29.495Z,12.09
2019-03-31T19:37:30.033Z,12.00
2019-03-31T19:40:20.736Z,12.19
2019-03-31T19:43:18.585Z,12.12
2019-03-31T19:46:08.077Z,11.85
2019-03-31T19:49:02.693Z,11.83
2019-03-31T19:51:54.496Z,11.88
2019-03-31T19:54:45.840Z,12.05
2019-03-31T19:57:38.014Z,11.72
2019-03-31T20:00:39.179Z,11.74
2019-03-31T20:03:31.074Z,11.56
2019-03-31T20:06:18.660Z,11.40
2019-03-31T20:09:08.912Z,11.19
2019-03-31T20:12:03.426Z,11.25
2019-03-31T20:14:45.441Z,11.08
2019-03-31T20:17:42.798Z,11.08
2019-03-31T20:20:43.513Z,11.10
2019-03-31T20:23:27.992Z,10.98
2019-03-31T20:26:19.055Z,10.95
2019-03-31T20:29:10.555Z,10.91
2019-03-31T20:31:52.449Z,10.86
2019-03-31T20:34:43.531Z,11.08
2019-03-31T20:37:23.820Z,10.83
2019-03-31T20:40:22.742Z,10.66
2019-03-31T20:43:11.024Z,10.53
2019-03-31T20:45:40.629Z,10.46
2019-03-31T20:48:10.840Z,10.41
2019-03-31T20:50:40.498Z,10.41
2019-03-31T20:53:10.304Z,10.25
2019-03-31T20:55:39.882Z,10.16
2019-03-31T20:58:09.344Z,10.26
2019-03-31T21:00:38.992Z,10.29
2019-03-31T21:03:08.906Z,10.13
2019-03-31T21:08:15.732Z,10.32
2019-03-31T21:10:45.033Z,10.21
2019-03-31T21:13:14.843Z,9.93
2019-03-31T21:15:44.347Z,9.92
2019-03-31T21:18:13.898Z,9.91
2019-03-31T21:20:43.985Z,9.84
2019-03-31T21:23:13.526Z,9.80
2019-03-31T21:25:46.131Z,9.61
2019-03-31T21:28:15.970Z,9.63
2019-03-31T21:30:45.757Z,9.55
2019-03-31T21:33:15.807Z,9.35
2019-03-31T21:35:48.548Z,9.38
2019-03-31T21:38:18.428Z,9.40
2019-03-31T21:40:47.733Z,9.65
2019-03-31T21:43:17.056Z,9.37
2019-03-31T21:45:47.461Z,9.34
2019-03-31T21:48:16.729Z,9.24
2019-03-31T21:50:46.019Z,9.33
2019-03-31T21:53:16.445Z,9.40
2019-03-31T21:55:47.090Z,9.29
2019-03-31T21:58:17.815Z,9.28
2019-03-31T22:00:59.527Z,9.30
2019-03-31T22:03:29.938Z,9.21
2019-03-31T22:05:59.585Z,9.28
2019-03-31T22:08:28.974Z,9.39
2019-03-31T22:10:58.898Z,9.20
2019-03-31T22:13:29.270Z,9.37
2019-03-31T22:16:00.267Z,9.27
2019-03-31T22:18:32.922Z,9.15
2019-03-31T22:21:03.761Z,8.98
2019-03-31T22:23:34.712Z,9.00
2019-03-31T22:26:04.064Z,8.86
2019-03-31T22:28:33.545Z,8.92
2019-03-31T22:31:04.663Z,9.00
2019-03-31T22:33:34.493Z,8.82
2019-03-31T22:36:22.349Z,8.82
2019-03-31T22:38:53.111Z,8.90
2019-03-31T22:41:22.784Z,8.94
2019-03-31T22:43:52.080Z,8.81
2019-03-31T22:46:21.398Z,8.72
2019-03-31T22:48:50.683Z,8.82
2019-03-31T22:51:20.031Z,8.57
2019-03-31T22:53:50.048Z,8.41
2019-03-31T22:56:19.338Z,8.58
2019-03-31T22:58:48.622Z,8.57
2019-03-31T23:01:17.973Z,8.58
2019-03-31T23:03:47.264Z,8.66
2019-03-31T23:06:16.548Z,8.56
2019-03-31T23:08:45.967Z,8.48
2019-03-31T23:11:15.268Z,8.39
2019-03-31T23:13:45.039Z,8.40
2019-03-31T23:16:15.555Z,8.41
2019-03-31T23:18:44.816Z,8.44
2019-03-31T23:21:14.148Z,8.39
2019-03-31T23:23:43.406Z,8.27
2019-03-31T23:26:12.744Z,8.25
2019-03-31T23:28:47.230Z,8.17
2019-03-31T23:31:18.763Z,8.21
2019-03-31T23:33:51.371Z,8.14
2019-03-31T23:36:21.967Z,8.12
2019-03-31T23:38:52.713Z,7.71
2019-03-31T23:41:23.281Z,7.71
2019-03-31T23:43:53.698Z,7.72
2019-03-31T23:46:24.964Z,7.78
2019-03-31T23:48:55.410Z,7.74
2019-03-31T23:51:25.015Z,7.54
2019-03-31T23:53:55.876Z,7.42
2019-03-31T23:56:27.367Z,7.33
2019-03-31T23:58:56.956Z,7.27
